sensor_id;sensor_type;location;lat;lon;timestamp;P1;durP1;ratioP1;P2;durP2;ratioP2
50853;SDS011;44154;45.506;-122.806;2022-09-09T00:09:13;3.20;;;0.70;;
50853;SDS011;44154;45.506;-122.806;2022-09-09T00:11:51;3.60;;;0.77;;
50853;SDS011;44154;45.506;-122.806;2022-09-09T00:17:09;4.00;;;0.75;;
50853;SDS011;44154;45.506;-122.806;2022-09-09T00:22:19;4.53;;;0.80;;
50853;SDS011;44154;45.506;-122.806;2022-09-09T00:27:21;3.30;;;0.70;;
50853;SDS011;44154;45.506;-122.806;2022-09-09T00:33:00;4.53;;;0.82;;
50853;SDS011;44154;45.506;-122.806;2022-09-09T00:35:40;3.78;;;0.68;;
50853;SDS011;44154;45.506;-122.806;2022-09-09T00:38:18;4.38;;;0.80;;
50853;SDS011;44154;45.506;-122.806;2022-09-09T00:40:50;3.90;;;0.73;;
50853;SDS011;44154;45.506;-122.806;2022-09-09T00:51:38;3.15;;;0.90;;
50853;SDS011;44154;45.506;-122.806;2022-09-09T00:54:45;4.70;;;1.10;;
50853;SDS011;44154;45.506;-122.806;2022-09-09T00:57:26;12.80;;;1.38;;
50853;SDS011;44154;45.506;-122.806;2022-09-09T01:00:15;5.68;;;1.02;;
50853;SDS011;44154;45.506;-122.806;2022-09-09T01:11:31;7.85;;;1.20;;
50853;SDS011;44154;45.506;-122.806;2022-09-09T01:27:35;8.35;;;1.77;;
50853;SDS011;44154;45.506;-122.806;2022-09-09T01:30:12;10.20;;;1.98;;
50853;SDS011;44154;45.506;-122.806;2022-09-09T01:32:46;8.88;;;1.92;;
50853;SDS011;44154;45.506;-122.806;2022-09-09T01:35:19;5.07;;;1.27;;
50853;SDS011;44154;45.506;-122.806;2022-09-09T01:38:04;8.77;;;1.50;;
50853;SDS011;44154;45.506;-122.806;2022-09-09T01:40:31;7.63;;;1.70;;
50853;SDS011;44154;45.506;-122.806;2022-09-09T01:42:57;18.17;;;2.83;;
50853;SDS011;44154;45.506;-122.806;2022-09-09T01:45:24;14.55;;;2.22;;
50853;SDS011;44154;45.506;-122.806;2022-09-09T01:47:52;14.02;;;2.30;;
50853;SDS011;44154;45.506;-122.806;2022-09-09T01:50:19;15.73;;;2.13;;
50853;SDS011;44154;45.506;-122.806;2022-09-09T01:52:46;12.48;;;1.50;;
50853;SDS011;44154;45.506;-122.806;2022-09-09T01:55:21;10.82;;;2.10;;
50853;SDS011;44154;45.506;-122.806;2022-09-09T02:00:44;7.75;;;1.42;;
50853;SDS011;44154;45.506;-122.806;2022-09-09T02:03:27;9.63;;;2.25;;
50853;SDS011;44154;45.506;-122.806;2022-09-09T02:08:45;7.15;;;1.38;;
50853;SDS011;44154;45.506;-122.806;2022-09-09T02:11:14;6.90;;;1.30;;
50853;SDS011;44154;45.506;-122.806;2022-09-09T02:13:42;5.50;;;1.25;;
50853;SDS011;44154;45.506;-122.806;2022-09-09T02:18:47;6.15;;;1.60;;
50853;SDS011;44154;45.506;-122.806;2022-09-09T02:21:17;8.13;;;1.42;;
50853;SDS011;44154;45.506;-122.806;2022-09-09T02:23:44;6.35;;;1.30;;
50853;SDS011;44154;45.506;-122.806;2022-09-09T02:26:15;7.45;;;1.92;;
50853;SDS011;44154;45.506;-122.806;2022-09-09T02:28:45;10.13;;;1.83;;
50853;SDS011;44154;45.506;-122.806;2022-09-09T02:33:53;10.65;;;1.90;;
50853;SDS011;44154;45.506;-122.806;2022-09-09T02:36:26;5.60;;;1.17;;
50853;SDS011;44154;45.506;-122.806;2022-09-09T02:38:58;14.27;;;1.95;;
50853;SDS011;44154;45.506;-122.806;2022-09-09T02:41:27;11.27;;;2.00;;
50853;SDS011;44154;45.506;-122.806;2022-09-09T02:43:59;8.90;;;1.35;;
50853;SDS011;44154;45.506;-122.806;2022-09-09T02:46:32;12.18;;;1.40;;
50853;SDS011;44154;45.506;-122.806;2022-09-09T02:49:15;12.45;;;1.50;;
50853;SDS011;44154;45.506;-122.806;2022-09-09T02:54:43;12.60;;;3.15;;
50853;SDS011;44154;45.506;-122.806;2022-09-09T02:57:11;5.22;;;1.00;;
50853;SDS011;44154;45.506;-122.806;2022-09-09T02:59:41;5.10;;;1.00;;
50853;SDS011;44154;45.506;-122.806;2022-09-09T03:02:10;10.07;;;2.10;;
50853;SDS011;44154;45.506;-122.806;2022-09-09T03:04:38;14.82;;;2.17;;
50853;SDS011;44154;45.506;-122.806;2022-09-09T03:07:16;10.50;;;1.38;;
50853;SDS011;44154;45.506;-122.806;2022-09-09T03:09:42;6.57;;;1.42;;
50853;SDS011;44154;45.506;-122.806;2022-09-09T03:12:09;5.68;;;1.23;;
50853;SDS011;44154;45.506;-122.806;2022-09-09T03:14:36;7.82;;;2.00;;
50853;SDS011;44154;45.506;-122.806;2022-09-09T03:17:04;5.75;;;1.27;;
50853;SDS011;44154;45.506;-122.806;2022-09-09T03:19:31;11.98;;;1.98;;
50853;SDS011;44154;45.506;-122.806;2022-09-09T03:21:57;7.43;;;1.00;;
50853;SDS011;44154;45.506;-122.806;2022-09-09T03:24:24;6.00;;;1.05;;
50853;SDS011;44154;45.506;-122.806;2022-09-09T03:26:51;5.70;;;1.10;;
50853;SDS011;44154;45.506;-122.806;2022-09-09T03:29:17;4.00;;;0.90;;
50853;SDS011;44154;45.506;-122.806;2022-09-09T03:31:43;2.85;;;0.60;;
50853;SDS011;44154;45.506;-122.806;2022-09-09T03:34:10;1.63;;;0.60;;
50853;SDS011;44154;45.506;-122.806;2022-09-09T03:36:37;2.70;;;0.47;;
50853;SDS011;44154;45.506;-122.806;2022-09-09T03:39:03;2.05;;;0.60;;
50853;SDS011;44154;45.506;-122.806;2022-09-09T03:41:29;2.58;;;0.40;;
50853;SDS011;44154;45.506;-122.806;2022-09-09T03:43:56;2.10;;;0.47;;
50853;SDS011;44154;45.506;-122.806;2022-09-09T03:46:23;4.90;;;0.80;;
50853;SDS011;44154;45.506;-122.806;2022-09-09T03:48:50;2.88;;;0.50;;
50853;SDS011;44154;45.506;-122.806;2022-09-09T03:51:20;4.50;;;0.80;;
50853;SDS011;44154;45.506;-122.806;2022-09-09T03:53:47;4.88;;;0.73;;
50853;SDS011;44154;45.506;-122.806;2022-09-09T03:56:13;2.13;;;0.82;;
50853;SDS011;44154;45.506;-122.806;2022-09-09T03:58:39;3.55;;;0.95;;
50853;SDS011;44154;45.506;-122.806;2022-09-09T04:01:07;2.50;;;0.60;;
50853;SDS011;44154;45.506;-122.806;2022-09-09T04:03:35;1.75;;;0.68;;
50853;SDS011;44154;45.506;-122.806;2022-09-09T04:06:02;2.83;;;0.90;;
50853;SDS011;44154;45.506;-122.806;2022-09-09T04:08:30;2.20;;;0.60;;
50853;SDS011;44154;45.506;-122.806;2022-09-09T04:11:00;2.65;;;0.65;;
50853;SDS011;44154;45.506;-122.806;2022-09-09T04:13:30;1.52;;;0.60;;
50853;SDS011;44154;45.506;-122.806;2022-09-09T04:15:57;1.45;;;0.70;;
50853;SDS011;44154;45.506;-122.806;2022-09-09T04:18:24;1.63;;;0.68;;
50853;SDS011;44154;45.506;-122.806;2022-09-09T04:20:51;3.50;;;0.88;;
50853;SDS011;44154;45.506;-122.806;2022-09-09T04:23:18;3.42;;;0.95;;
50853;SDS011;44154;45.506;-122.806;2022-09-09T04:25:49;2.97;;;0.77;;
50853;SDS011;44154;45.506;-122.806;2022-09-09T04:28:17;3.65;;;0.98;;
50853;SDS011;44154;45.506;-122.806;2022-09-09T04:30:45;2.50;;;0.85;;
50853;SDS011;44154;45.506;-122.806;2022-09-09T04:33:12;3.53;;;0.70;;
50853;SDS011;44154;45.506;-122.806;2022-09-09T04:35:43;2.33;;;1.00;;
50853;SDS011;44154;45.506;-122.806;2022-09-09T04:38:14;3.20;;;0.95;;
50853;SDS011;44154;45.506;-122.806;2022-09-09T04:40:46;2.17;;;0.68;;
50853;SDS011;44154;45.506;-122.806;2022-09-09T04:43:13;1.67;;;0.40;;
50853;SDS011;44154;45.506;-122.806;2022-09-09T04:45:40;1.35;;;0.60;;
50853;SDS011;44154;45.506;-122.806;2022-09-09T04:48:09;2.92;;;0.55;;
50853;SDS011;44154;45.506;-122.806;2022-09-09T04:50:35;1.30;;;0.57;;
50853;SDS011;44154;45.506;-122.806;2022-09-09T04:53:02;2.72;;;0.57;;
50853;SDS011;44154;45.506;-122.806;2022-09-09T04:55:30;1.77;;;0.60;;
50853;SDS011;44154;45.506;-122.806;2022-09-09T04:57:57;1.65;;;0.40;;
50853;SDS011;44154;45.506;-122.806;2022-09-09T05:00:28;2.75;;;0.63;;
50853;SDS011;44154;45.506;-122.806;2022-09-09T05:02:54;3.20;;;0.85;;
50853;SDS011;44154;45.506;-122.806;2022-09-09T05:05:20;3.17;;;0.90;;
50853;SDS011;44154;45.506;-122.806;2022-09-09T05:07:46;7.90;;;0.88;;
50853;SDS011;44154;45.506;-122.806;2022-09-09T05:10:13;1.60;;;0.88;;
50853;SDS011;44154;45.506;-122.806;2022-09-09T05:12:41;3.28;;;1.20;;
50853;SDS011;44154;45.506;-122.806;2022-09-09T05:15:08;3.10;;;1.33;;
50853;SDS011;44154;45.506;-122.806;2022-09-09T05:17:34;3.03;;;1.90;;
50853;SDS011;44154;45.506;-122.806;2022-09-09T05:20:01;3.95;;;2.00;;
50853;SDS011;44154;45.506;-122.806;2022-09-09T05:22:28;3.38;;;1.73;;
50853;SDS011;44154;45.506;-122.806;2022-09-09T05:24:55;2.88;;;1.52;;
50853;SDS011;44154;45.506;-122.806;2022-09-09T05:27:21;5.38;;;1.77;;
50853;SDS011;44154;45.506;-122.806;2022-09-09T05:29:48;4.22;;;1.90;;
50853;SDS011;44154;45.506;-122.806;2022-09-09T05:32:14;4.90;;;1.80;;
50853;SDS011;44154;45.506;-122.806;2022-09-09T05:34:42;3.08;;;1.50;;
50853;SDS011;44154;45.506;-122.806;2022-09-09T05:37:09;4.35;;;1.52;;
50853;SDS011;44154;45.506;-122.806;2022-09-09T05:39:35;4.35;;;1.63;;
50853;SDS011;44154;45.506;-122.806;2022-09-09T05:42:02;8.75;;;1.83;;
50853;SDS011;44154;45.506;-122.806;2022-09-09T05:44:30;6.72;;;1.63;;
50853;SDS011;44154;45.506;-122.806;2022-09-09T05:46:56;6.15;;;1.60;;
50853;SDS011;44154;45.506;-122.806;2022-09-09T05:49:23;6.88;;;1.80;;
50853;SDS011;44154;45.506;-122.806;2022-09-09T05:51:49;4.15;;;1.42;;
50853;SDS011;44154;45.506;-122.806;2022-09-09T05:54:16;7.60;;;1.70;;
50853;SDS011;44154;45.506;-122.806;2022-09-09T05:56:42;7.72;;;1.92;;
50853;SDS011;44154;45.506;-122.806;2022-09-09T05:59:08;3.88;;;1.30;;
50853;SDS011;44154;45.506;-122.806;2022-09-09T06:01:35;4.57;;;0.93;;
50853;SDS011;44154;45.506;-122.806;2022-09-09T06:04:05;4.47;;;1.10;;
50853;SDS011;44154;45.506;-122.806;2022-09-09T06:06:36;3.67;;;1.15;;
50853;SDS011;44154;45.506;-122.806;2022-09-09T06:09:05;4.28;;;1.90;;
50853;SDS011;44154;45.506;-122.806;2022-09-09T06:11:35;4.05;;;1.20;;
50853;SDS011;44154;45.506;-122.806;2022-09-09T06:14:03;2.75;;;1.00;;
50853;SDS011;44154;45.506;-122.806;2022-09-09T06:16:30;4.35;;;1.52;;
50853;SDS011;44154;45.506;-122.806;2022-09-09T06:19:00;2.97;;;1.20;;
50853;SDS011;44154;45.506;-122.806;2022-09-09T06:21:30;4.03;;;1.25;;
50853;SDS011;44154;45.506;-122.806;2022-09-09T06:23:59;2.05;;;1.15;;
50853;SDS011;44154;45.506;-122.806;2022-09-09T06:26:26;3.67;;;1.30;;
50853;SDS011;44154;45.506;-122.806;2022-09-09T06:29:01;3.70;;;1.27;;
50853;SDS011;44154;45.506;-122.806;2022-09-09T06:31:32;4.32;;;1.10;;
50853;SDS011;44154;45.506;-122.806;2022-09-09T06:33:59;4.22;;;1.15;;
50853;SDS011;44154;45.506;-122.806;2022-09-09T06:36:27;2.85;;;1.30;;
50853;SDS011;44154;45.506;-122.806;2022-09-09T06:38:55;3.42;;;0.98;;
50853;SDS011;44154;45.506;-122.806;2022-09-09T06:41:22;1.80;;;0.70;;
50853;SDS011;44154;45.506;-122.806;2022-09-09T06:43:50;3.10;;;0.85;;
50853;SDS011;44154;45.506;-122.806;2022-09-09T06:46:17;3.58;;;1.00;;
50853;SDS011;44154;45.506;-122.806;2022-09-09T06:48:45;3.85;;;0.85;;
50853;SDS011;44154;45.506;-122.806;2022-09-09T06:51:12;3.15;;;0.73;;
50853;SDS011;44154;45.506;-122.806;2022-09-09T06:53:41;3.30;;;0.68;;
50853;SDS011;44154;45.506;-122.806;2022-09-09T06:58:36;2.28;;;0.63;;
50853;SDS011;44154;45.506;-122.806;2022-09-09T07:01:05;2.97;;;0.60;;
50853;SDS011;44154;45.506;-122.806;2022-09-09T07:03:32;2.15;;;0.70;;
50853;SDS011;44154;45.506;-122.806;2022-09-09T07:05:59;3.13;;;0.70;;
50853;SDS011;44154;45.506;-122.806;2022-09-09T07:08:26;3.03;;;0.75;;
50853;SDS011;44154;45.506;-122.806;2022-09-09T07:10:52;5.15;;;0.80;;
50853;SDS011;44154;45.506;-122.806;2022-09-09T07:13:25;2.30;;;0.70;;
50853;SDS011;44154;45.506;-122.806;2022-09-09T07:15:52;1.55;;;0.70;;
50853;SDS011;44154;45.506;-122.806;2022-09-09T07:18:19;2.88;;;0.75;;
50853;SDS011;44154;45.506;-122.806;2022-09-09T07:20:55;1.83;;;0.50;;
50853;SDS011;44154;45.506;-122.806;2022-09-09T07:23:22;1.63;;;0.68;;
50853;SDS011;44154;45.506;-122.806;2022-09-09T07:25:49;3.72;;;0.80;;
50853;SDS011;44154;45.506;-122.806;2022-09-09T07:28:17;3.08;;;1.00;;
50853;SDS011;44154;45.506;-122.806;2022-09-09T07:30:43;1.65;;;0.57;;
50853;SDS011;44154;45.506;-122.806;2022-09-09T07:33:09;3.47;;;0.90;;
50853;SDS011;44154;45.506;-122.806;2022-09-09T07:35:35;2.83;;;0.60;;
50853;SDS011;44154;45.506;-122.806;2022-09-09T07:38:02;4.00;;;0.63;;
50853;SDS011;44154;45.506;-122.806;2022-09-09T07:40:32;1.70;;;0.60;;
50853;SDS011;44154;45.506;-122.806;2022-09-09T07:42:59;1.45;;;0.60;;
50853;SDS011;44154;45.506;-122.806;2022-09-09T07:45:26;2.40;;;0.80;;
50853;SDS011;44154;45.506;-122.806;2022-09-09T07:47:58;3.47;;;0.70;;
50853;SDS011;44154;45.506;-122.806;2022-09-09T07:50:24;2.55;;;0.80;;
50853;SDS011;44154;45.506;-122.806;2022-09-09T07:52:51;2.17;;;0.70;;
50853;SDS011;44154;45.506;-122.806;2022-09-09T07:55:19;3.22;;;0.80;;
50853;SDS011;44154;45.506;-122.806;2022-09-09T07:57:46;2.45;;;0.85;;
50853;SDS011;44154;45.506;-122.806;2022-09-09T08:00:12;2.45;;;0.55;;
50853;SDS011;44154;45.506;-122.806;2022-09-09T08:02:40;3.13;;;0.60;;
50853;SDS011;44154;45.506;-122.806;2022-09-09T08:05:06;2.38;;;0.60;;
50853;SDS011;44154;45.506;-122.806;2022-09-09T08:07:32;2.55;;;0.70;;
50853;SDS011;44154;45.506;-122.806;2022-09-09T08:09:59;2.35;;;1.05;;
50853;SDS011;44154;45.506;-122.806;2022-09-09T08:12:25;3.00;;;0.70;;
50853;SDS011;44154;45.506;-122.806;2022-09-09T08:14:52;1.48;;;0.45;;
50853;SDS011;44154;45.506;-122.806;2022-09-09T08:17:19;2.55;;;0.80;;
50853;SDS011;44154;45.506;-122.806;2022-09-09T08:19:45;3.53;;;0.65;;
50853;SDS011;44154;45.506;-122.806;2022-09-09T08:22:11;3.13;;;0.60;;
50853;SDS011;44154;45.506;-122.806;2022-09-09T08:24:37;3.22;;;0.70;;
50853;SDS011;44154;45.506;-122.806;2022-09-09T08:27:04;1.67;;;0.60;;
50853;SDS011;44154;45.506;-122.806;2022-09-09T08:29:30;2.28;;;0.60;;
50853;SDS011;44154;45.506;-122.806;2022-09-09T08:31:58;2.40;;;0.80;;
50853;SDS011;44154;45.506;-122.806;2022-09-09T08:34:25;2.20;;;0.70;;
50853;SDS011;44154;45.506;-122.806;2022-09-09T08:36:52;2.53;;;0.90;;
50853;SDS011;44154;45.506;-122.806;2022-09-09T08:39:19;1.92;;;0.70;;
50853;SDS011;44154;45.506;-122.806;2022-09-09T08:52:27;2.55;;;1.00;;
50853;SDS011;44154;45.506;-122.806;2022-09-09T08:55:05;2.75;;;0.70;;
50853;SDS011;44154;45.506;-122.806;2022-09-09T08:57:38;2.88;;;0.70;;
50853;SDS011;44154;45.506;-122.806;2022-09-09T09:00:04;3.00;;;1.20;;
50853;SDS011;44154;45.506;-122.806;2022-09-09T09:08:20;2.25;;;0.88;;
50853;SDS011;44154;45.506;-122.806;2022-09-09T09:10:51;2.10;;;0.80;;
50853;SDS011;44154;45.506;-122.806;2022-09-09T09:16:06;1.42;;;0.68;;
50853;SDS011;44154;45.506;-122.806;2022-09-09T09:18:45;2.58;;;1.13;;
50853;SDS011;44154;45.506;-122.806;2022-09-09T09:21:13;2.35;;;0.88;;
50853;SDS011;44154;45.506;-122.806;2022-09-09T09:23:51;2.95;;;0.90;;
50853;SDS011;44154;45.506;-122.806;2022-09-09T09:26:23;2.47;;;1.05;;
50853;SDS011;44154;45.506;-122.806;2022-09-09T09:28:55;1.85;;;0.93;;
50853;SDS011;44154;45.506;-122.806;2022-09-09T09:31:24;2.72;;;0.80;;
50853;SDS011;44154;45.506;-122.806;2022-09-09T09:33:52;2.55;;;0.80;;
50853;SDS011;44154;45.506;-122.806;2022-09-09T09:36:21;3.45;;;1.13;;
50853;SDS011;44154;45.506;-122.806;2022-09-09T09:38:59;3.17;;;0.93;;
50853;SDS011;44154;45.506;-122.806;2022-09-09T09:44:04;3.20;;;1.10;;
50853;SDS011;44154;45.506;-122.806;2022-09-09T09:46:32;1.80;;;0.90;;
50853;SDS011;44154;45.506;-122.806;2022-09-09T09:48:59;2.88;;;1.20;;
50853;SDS011;44154;45.506;-122.806;2022-09-09T09:51:28;2.40;;;0.93;;
50853;SDS011;44154;45.506;-122.806;2022-09-09T09:56:54;3.15;;;1.05;;
50853;SDS011;44154;45.506;-122.806;2022-09-09T10:02:06;2.20;;;1.00;;
50853;SDS011;44154;45.506;-122.806;2022-09-09T10:04:41;1.77;;;1.00;;
50853;SDS011;44154;45.506;-122.806;2022-09-09T10:07:17;2.83;;;1.10;;
50853;SDS011;44154;45.506;-122.806;2022-09-09T10:09:45;3.38;;;1.13;;
50853;SDS011;44154;45.506;-122.806;2022-09-09T10:12:39;3.22;;;1.30;;
50853;SDS011;44154;45.506;-122.806;2022-09-09T10:15:26;2.90;;;1.20;;
50853;SDS011;44154;45.506;-122.806;2022-09-09T10:18:57;2.90;;;1.10;;
50853;SDS011;44154;45.506;-122.806;2022-09-09T10:21:16;2.88;;;1.02;;
50853;SDS011;44154;45.506;-122.806;2022-09-09T10:40:24;2.53;;;1.17;;
50853;SDS011;44154;45.506;-122.806;2022-09-09T10:45:58;3.75;;;1.90;;
50853;SDS011;44154;45.506;-122.806;2022-09-09T10:48:31;4.80;;;1.58;;
50853;SDS011;44154;45.506;-122.806;2022-09-09T10:56:17;3.35;;;1.20;;
50853;SDS011;44154;45.506;-122.806;2022-09-09T11:01:20;3.90;;;1.20;;
50853;SDS011;44154;45.506;-122.806;2022-09-09T11:04:04;2.47;;;1.00;;
50853;SDS011;44154;45.506;-122.806;2022-09-09T11:09:14;3.05;;;1.40;;
50853;SDS011;44154;45.506;-122.806;2022-09-09T11:12:03;3.75;;;1.42;;
50853;SDS011;44154;45.506;-122.806;2022-09-09T11:14:42;3.30;;;1.35;;
50853;SDS011;44154;45.506;-122.806;2022-09-09T11:17:15;3.33;;;1.23;;
50853;SDS011;44154;45.506;-122.806;2022-09-09T11:19:43;3.50;;;1.35;;
50853;SDS011;44154;45.506;-122.806;2022-09-09T11:24:56;3.10;;;1.50;;
50853;SDS011;44154;45.506;-122.806;2022-09-09T11:30:16;3.90;;;1.13;;
50853;SDS011;44154;45.506;-122.806;2022-09-09T11:35:54;2.55;;;1.35;;
50853;SDS011;44154;45.506;-122.806;2022-09-09T11:38:31;2.53;;;1.30;;
50853;SDS011;44154;45.506;-122.806;2022-09-09T11:41:35;2.83;;;1.20;;
50853;SDS011;44154;45.506;-122.806;2022-09-09T11:44:12;2.95;;;1.30;;
50853;SDS011;44154;45.506;-122.806;2022-09-09T11:46:46;2.17;;;1.20;;
50853;SDS011;44154;45.506;-122.806;2022-09-09T11:49:25;2.95;;;1.30;;
50853;SDS011;44154;45.506;-122.806;2022-09-09T11:51:52;2.25;;;1.40;;
50853;SDS011;44154;45.506;-122.806;2022-09-09T11:54:30;2.53;;;1.45;;
50853;SDS011;44154;45.506;-122.806;2022-09-09T11:56:58;3.05;;;1.38;;
50853;SDS011;44154;45.506;-122.806;2022-09-09T11:59:25;3.85;;;1.30;;
50853;SDS011;44154;45.506;-122.806;2022-09-09T12:02:09;2.77;;;1.13;;
50853;SDS011;44154;45.506;-122.806;2022-09-09T12:04:49;2.70;;;1.20;;
50853;SDS011;44154;45.506;-122.806;2022-09-09T12:09:58;1.88;;;1.08;;
50853;SDS011;44154;45.506;-122.806;2022-09-09T12:12:33;2.95;;;1.35;;
50853;SDS011;44154;45.506;-122.806;2022-09-09T12:17:43;2.73;;;1.13;;
50853;SDS011;44154;45.506;-122.806;2022-09-09T12:22:51;3.30;;;1.23;;
50853;SDS011;44154;45.506;-122.806;2022-09-09T12:28:15;3.40;;;1.50;;
50853;SDS011;44154;45.506;-122.806;2022-09-09T12:33:18;2.40;;;1.30;;
50853;SDS011;44154;45.506;-122.806;2022-09-09T12:35:46;2.60;;;1.52;;
50853;SDS011;44154;45.506;-122.806;2022-09-09T12:38:37;2.90;;;1.40;;
50853;SDS011;44154;45.506;-122.806;2022-09-09T12:41:05;4.00;;;1.80;;
50853;SDS011;44154;45.506;-122.806;2022-09-09T12:43:45;2.38;;;1.30;;
50853;SDS011;44154;45.506;-122.806;2022-09-09T12:46:16;2.80;;;1.25;;
50853;SDS011;44154;45.506;-122.806;2022-09-09T12:48:51;2.92;;;1.55;;
50853;SDS011;44154;45.506;-122.806;2022-09-09T12:51:30;2.78;;;1.45;;
50853;SDS011;44154;45.506;-122.806;2022-09-09T12:53:58;3.00;;;1.27;;
50853;SDS011;44154;45.506;-122.806;2022-09-09T12:56:29;3.08;;;1.30;;
50853;SDS011;44154;45.506;-122.806;2022-09-09T12:58:57;4.32;;;1.48;;
50853;SDS011;44154;45.506;-122.806;2022-09-09T13:01:28;2.65;;;1.27;;
50853;SDS011;44154;45.506;-122.806;2022-09-09T13:03:58;2.67;;;1.30;;
50853;SDS011;44154;45.506;-122.806;2022-09-09T13:06:26;3.75;;;1.38;;
50853;SDS011;44154;45.506;-122.806;2022-09-09T13:09:02;3.40;;;1.75;;
50853;SDS011;44154;45.506;-122.806;2022-09-09T13:14:01;3.08;;;1.42;;
50853;SDS011;44154;45.506;-122.806;2022-09-09T13:16:29;3.83;;;1.60;;
50853;SDS011;44154;45.506;-122.806;2022-09-09T13:18:57;5.07;;;1.80;;
50853;SDS011;44154;45.506;-122.806;2022-09-09T13:21:38;2.83;;;1.40;;
50853;SDS011;44154;45.506;-122.806;2022-09-09T13:24:06;4.32;;;1.75;;
50853;SDS011;44154;45.506;-122.806;2022-09-09T13:26:55;3.88;;;1.77;;
50853;SDS011;44154;45.506;-122.806;2022-09-09T13:29:29;3.17;;;1.70;;
50853;SDS011;44154;45.506;-122.806;2022-09-09T13:32:04;3.25;;;1.67;;
50853;SDS011;44154;45.506;-122.806;2022-09-09T13:34:33;4.45;;;1.48;;
50853;SDS011;44154;45.506;-122.806;2022-09-09T13:37:02;3.40;;;1.80;;
50853;SDS011;44154;45.506;-122.806;2022-09-09T13:39:32;3.53;;;1.60;;
50853;SDS011;44154;45.506;-122.806;2022-09-09T13:42:02;3.70;;;1.60;;
50853;SDS011;44154;45.506;-122.806;2022-09-09T13:44:30;5.05;;;2.25;;
50853;SDS011;44154;45.506;-122.806;2022-09-09T13:49:32;4.45;;;2.08;;
50853;SDS011;44154;45.506;-122.806;2022-09-09T13:52:12;7.43;;;2.38;;
50853;SDS011;44154;45.506;-122.806;2022-09-09T13:54:40;4.05;;;2.42;;
50853;SDS011;44154;45.506;-122.806;2022-09-09T13:57:16;6.07;;;2.10;;
50853;SDS011;44154;45.506;-122.806;2022-09-09T13:59:45;4.07;;;1.98;;
50853;SDS011;44154;45.506;-122.806;2022-09-09T14:02:13;5.53;;;2.25;;
50853;SDS011;44154;45.506;-122.806;2022-09-09T14:04:40;4.55;;;2.05;;
50853;SDS011;44154;45.506;-122.806;2022-09-09T14:07:15;4.53;;;2.40;;
50853;SDS011;44154;45.506;-122.806;2022-09-09T14:09:42;3.63;;;1.98;;
50853;SDS011;44154;45.506;-122.806;2022-09-09T14:12:12;2.95;;;1.73;;
50853;SDS011;44154;45.506;-122.806;2022-09-09T14:14:40;4.85;;;2.17;;
50853;SDS011;44154;45.506;-122.806;2022-09-09T14:17:07;6.13;;;2.40;;
50853;SDS011;44154;45.506;-122.806;2022-09-09T14:19:34;4.80;;;2.40;;
50853;SDS011;44154;45.506;-122.806;2022-09-09T14:22:02;4.88;;;2.28;;
50853;SDS011;44154;45.506;-122.806;2022-09-09T14:24:28;3.50;;;1.90;;
50853;SDS011;44154;45.506;-122.806;2022-09-09T14:26:54;6.57;;;2.65;;
50853;SDS011;44154;45.506;-122.806;2022-09-09T14:29:21;4.07;;;2.25;;
50853;SDS011;44154;45.506;-122.806;2022-09-09T14:31:47;4.20;;;2.47;;
50853;SDS011;44154;45.506;-122.806;2022-09-09T14:34:13;4.82;;;2.35;;
50853;SDS011;44154;45.506;-122.806;2022-09-09T14:36:40;5.60;;;2.33;;
50853;SDS011;44154;45.506;-122.806;2022-09-09T14:39:06;5.10;;;2.28;;
50853;SDS011;44154;45.506;-122.806;2022-09-09T14:41:33;6.38;;;2.03;;
50853;SDS011;44154;45.506;-122.806;2022-09-09T14:43:59;4.57;;;2.13;;
50853;SDS011;44154;45.506;-122.806;2022-09-09T14:46:25;7.82;;;2.88;;
50853;SDS011;44154;45.506;-122.806;2022-09-09T14:48:52;4.93;;;2.40;;
50853;SDS011;44154;45.506;-122.806;2022-09-09T14:51:19;6.35;;;2.40;;
50853;SDS011;44154;45.506;-122.806;2022-09-09T14:53:47;7.55;;;2.25;;
50853;SDS011;44154;45.506;-122.806;2022-09-09T14:56:17;3.60;;;2.10;;
50853;SDS011;44154;45.506;-122.806;2022-09-09T14:58:45;7.38;;;2.83;;
50853;SDS011;44154;45.506;-122.806;2022-09-09T15:01:12;6.35;;;2.50;;
50853;SDS011;44154;45.506;-122.806;2022-09-09T15:03:49;7.05;;;2.97;;
50853;SDS011;44154;45.506;-122.806;2022-09-09T15:06:16;6.15;;;2.45;;
50853;SDS011;44154;45.506;-122.806;2022-09-09T15:08:43;6.38;;;2.70;;
50853;SDS011;44154;45.506;-122.806;2022-09-09T15:11:11;5.35;;;2.63;;
50853;SDS011;44154;45.506;-122.806;2022-09-09T15:13:38;5.88;;;2.85;;
50853;SDS011;44154;45.506;-122.806;2022-09-09T15:16:16;5.97;;;2.80;;
50853;SDS011;44154;45.506;-122.806;2022-09-09T15:18:44;4.75;;;2.75;;
50853;SDS011;44154;45.506;-122.806;2022-09-09T15:23:38;4.65;;;2.83;;
50853;SDS011;44154;45.506;-122.806;2022-09-09T15:26:05;5.28;;;3.10;;
50853;SDS011;44154;45.506;-122.806;2022-09-09T15:28:32;5.88;;;2.92;;
50853;SDS011;44154;45.506;-122.806;2022-09-09T15:31:11;5.43;;;3.22;;
50853;SDS011;44154;45.506;-122.806;2022-09-09T15:33:39;5.57;;;2.90;;
50853;SDS011;44154;45.506;-122.806;2022-09-09T15:36:13;5.63;;;3.40;;
50853;SDS011;44154;45.506;-122.806;2022-09-09T15:38:44;6.40;;;3.30;;
50853;SDS011;44154;45.506;-122.806;2022-09-09T15:41:11;4.45;;;2.90;;
50853;SDS011;44154;45.506;-122.806;2022-09-09T15:43:38;5.13;;;3.20;;
50853;SDS011;44154;45.506;-122.806;2022-09-09T15:46:21;7.50;;;3.88;;
50853;SDS011;44154;45.506;-122.806;2022-09-09T15:48:57;5.15;;;3.10;;
50853;SDS011;44154;45.506;-122.806;2022-09-09T15:51:34;5.53;;;3.30;;
50853;SDS011;44154;45.506;-122.806;2022-09-09T15:54:02;5.93;;;3.90;;
50853;SDS011;44154;45.506;-122.806;2022-09-09T15:56:29;6.05;;;3.47;;
50853;SDS011;44154;45.506;-122.806;2022-09-09T15:58:56;6.65;;;3.30;;
50853;SDS011;44154;45.506;-122.806;2022-09-09T16:01:24;7.80;;;3.83;;
50853;SDS011;44154;45.506;-122.806;2022-09-09T16:03:52;6.47;;;3.75;;
50853;SDS011;44154;45.506;-122.806;2022-09-09T16:06:20;5.97;;;3.85;;
50853;SDS011;44154;45.506;-122.806;2022-09-09T16:08:48;7.65;;;4.38;;
50853;SDS011;44154;45.506;-122.806;2022-09-09T16:11:16;6.32;;;3.95;;
50853;SDS011;44154;45.506;-122.806;2022-09-09T16:13:54;5.82;;;4.35;;
50853;SDS011;44154;45.506;-122.806;2022-09-09T16:16:22;7.55;;;4.38;;
50853;SDS011;44154;45.506;-122.806;2022-09-09T16:18:51;6.13;;;4.28;;
50853;SDS011;44154;45.506;-122.806;2022-09-09T16:21:30;6.18;;;4.28;;
50853;SDS011;44154;45.506;-122.806;2022-09-09T16:23:58;6.53;;;4.53;;
50853;SDS011;44154;45.506;-122.806;2022-09-09T16:26:26;12.27;;;4.28;;
50853;SDS011;44154;45.506;-122.806;2022-09-09T16:28:54;7.53;;;4.20;;
50853;SDS011;44154;45.506;-122.806;2022-09-09T16:31:21;6.63;;;5.30;;
50853;SDS011;44154;45.506;-122.806;2022-09-09T16:33:49;6.30;;;4.82;;
50853;SDS011;44154;45.506;-122.806;2022-09-09T16:36:17;5.93;;;4.32;;
50853;SDS011;44154;45.506;-122.806;2022-09-09T16:38:44;6.18;;;4.63;;
50853;SDS011;44154;45.506;-122.806;2022-09-09T16:41:11;6.07;;;5.10;;
50853;SDS011;44154;45.506;-122.806;2022-09-09T16:43:39;8.05;;;5.05;;
50853;SDS011;44154;45.506;-122.806;2022-09-09T16:46:19;9.38;;;5.25;;
50853;SDS011;44154;45.506;-122.806;2022-09-09T16:48:46;6.60;;;5.15;;
50853;SDS011;44154;45.506;-122.806;2022-09-09T16:51:17;6.63;;;5.07;;
50853;SDS011;44154;45.506;-122.806;2022-09-09T16:53:49;6.65;;;4.80;;
50853;SDS011;44154;45.506;-122.806;2022-09-09T16:56:17;9.23;;;5.35;;
50853;SDS011;44154;45.506;-122.806;2022-09-09T16:58:49;7.35;;;5.90;;